createdAt,value
2022-10-26T00:00:38.480Z,9.00
2022-10-26T00:03:26.414Z,10.70
2022-10-26T00:06:16.332Z,11.47
2022-10-26T00:09:04.406Z,9.53
2022-10-26T00:11:53.258Z,11.27
2022-10-26T00:14:40.990Z,11.73
2022-10-26T00:17:30.383Z,9.70
2022-10-26T00:20:18.281Z,9.87
2022-10-26T00:23:05.887Z,9.00
2022-10-26T00:25:56.589Z,9.23
2022-10-26T00:28:44.416Z,8.50
2022-10-26T00:31:32.710Z,9.70
2022-10-26T00:34:21.892Z,7.37
2022-10-26T00:37:09.740Z,12.87
2022-10-26T00:39:57.329Z,9.70
2022-10-26T00:42:45.264Z,9.20
2022-10-26T00:45:33.424Z,12.17
2022-10-26T00:48:27.274Z,17.97
2022-10-26T00:51:23.308Z,9.80
2022-10-26T00:54:14.038Z,12.60
2022-10-26T00:57:01.892Z,9.77
2022-10-26T00:59:50.047Z,9.93
2022-10-26T01:02:37.945Z,9.23
2022-10-26T01:05:26.096Z,9.00
2022-10-26T01:08:16.995Z,11.13
2022-10-26T01:11:05.649Z,8.73
2022-10-26T01:13:55.983Z,12.63
2022-10-26T01:16:57.379Z,13.13
2022-10-26T01:20:20.373Z,11.80
2022-10-26T01:23:13.747Z,10.83
2022-10-26T01:26:19.296Z,12.20
2022-10-26T01:29:27.270Z,10.20
2022-10-26T01:32:24.646Z,10.47
2022-10-26T01:35:17.491Z,11.53
2022-10-26T01:38:09.735Z,10.50
2022-10-26T01:41:05.100Z,11.33
2022-10-26T01:43:56.781Z,8.97
2022-10-26T01:46:48.601Z,10.50
2022-10-26T01:49:42.643Z,10.37
2022-10-26T01:52:30.418Z,12.33
2022-10-26T01:55:52.273Z,10.20
2022-10-26T01:59:05.406Z,10.57
2022-10-26T02:02:22.609Z,9.57
2022-10-26T02:05:23.600Z,9.67
2022-10-26T02:08:43.111Z,10.47
2022-10-26T02:11:39.809Z,10.37
2022-10-26T02:14:37.966Z,9.67
2022-10-26T02:17:30.010Z,10.07
2022-10-26T02:20:24.011Z,8.87
2022-10-26T02:23:13.502Z,10.10
2022-10-26T02:26:02.538Z,10.30
2022-10-26T02:28:52.262Z,9.60
2022-10-26T02:31:43.040Z,9.23
2022-10-26T02:34:33.547Z,10.13
2022-10-26T02:37:24.302Z,11.17
2022-10-26T02:40:16.168Z,10.47
2022-10-26T02:43:08.165Z,12.87
2022-10-26T02:46:00.894Z,10.03
2022-10-26T02:48:48.984Z,11.37
2022-10-26T02:51:42.588Z,10.77
2022-10-26T02:54:43.282Z,10.23
2022-10-26T02:57:39.728Z,9.33
2022-10-26T03:00:28.032Z,9.40
2022-10-26T03:03:16.882Z,9.70
2022-10-26T03:06:04.732Z,11.83
2022-10-26T03:08:53.317Z,9.67
2022-10-26T03:11:42.297Z,9.27
2022-10-26T03:14:30.161Z,9.77
2022-10-26T03:17:17.706Z,10.43
2022-10-26T03:20:06.101Z,11.07
2022-10-26T03:22:53.696Z,9.40
2022-10-26T03:25:41.468Z,8.97
2022-10-26T03:28:30.676Z,11.40
2022-10-26T03:31:18.363Z,9.63
2022-10-26T03:34:06.113Z,9.77
2022-10-26T03:36:53.474Z,10.00
2022-10-26T03:39:41.367Z,11.00
2022-10-26T03:42:28.928Z,11.57
2022-10-26T03:45:18.308Z,12.73
2022-10-26T03:48:06.687Z,12.13
2022-10-26T06:48:01.688Z,47.87
2022-10-26T06:50:53.885Z,56.87
2022-10-26T06:53:46.112Z,50.77
2022-10-26T06:56:36.141Z,43.93
2022-10-26T06:59:33.748Z,44.73
2022-10-26T07:02:21.788Z,36.73
2022-10-26T07:05:12.967Z,38.17
2022-10-26T07:08:04.075Z,40.60
2022-10-26T07:10:52.008Z,49.97
2022-10-26T07:13:39.843Z,65.03
2022-10-26T07:16:28.013Z,49.87
2022-10-26T07:19:15.540Z,38.97
2022-10-26T07:22:03.519Z,37.03
2022-10-26T07:24:53.371Z,36.13
2022-10-26T07:27:41.389Z,28.97
2022-10-26T07:30:30.669Z,33.13
2022-10-26T07:33:19.484Z,40.73
2022-10-26T07:36:08.705Z,37.50
2022-10-26T07:38:56.460Z,37.40
2022-10-26T07:41:46.812Z,29.50
2022-10-26T07:44:34.288Z,32.80
2022-10-26T07:47:22.028Z,32.83
2022-10-26T07:50:12.053Z,35.53
2022-10-26T07:53:00.256Z,34.60
2022-10-26T07:55:54.488Z,32.00
2022-10-26T07:58:43.666Z,30.45
2022-10-26T08:01:34.792Z,30.80
2022-10-26T08:04:22.508Z,37.45
2022-10-26T08:07:10.514Z,29.48
2022-10-26T08:09:58.250Z,27.42
2022-10-26T08:12:46.018Z,31.33
2022-10-26T08:15:35.106Z,27.30
2022-10-26T08:18:23.069Z,26.05
2022-10-26T08:21:15.607Z,25.35
2022-10-26T08:24:09.364Z,27.05
2022-10-26T08:26:57.127Z,19.80
2022-10-26T08:29:45.025Z,21.35
2022-10-26T08:32:34.117Z,19.55
2022-10-26T08:35:21.809Z,18.83
2022-10-26T08:38:09.410Z,15.77
2022-10-26T08:40:58.715Z,16.92
2022-10-26T08:43:53.429Z,15.10
2022-10-26T08:46:45.693Z,14.00
2022-10-26T08:49:43.201Z,13.60
2022-10-26T08:52:42.916Z,13.65
2022-10-26T08:55:36.047Z,11.68
2022-10-26T08:58:29.183Z,11.27
2022-10-26T09:35:44.707Z,11.82
2022-10-26T09:38:34.500Z,12.13
2022-10-26T09:47:22.248Z,12.32
2022-10-26T09:50:21.701Z,13.90
2022-10-26T10:24:28.167Z,13.25
2022-10-26T10:27:19.576Z,13.45
2022-10-26T10:30:23.596Z,11.57
2022-10-26T10:36:01.923Z,8.88
2022-10-26T10:38:51.045Z,11.60
2022-10-26T10:41:39.433Z,9.40
2022-10-26T10:44:31.474Z,9.70
2022-10-26T10:47:25.359Z,8.45
2022-10-26T10:50:20.472Z,7.35
2022-10-26T10:53:19.416Z,8.20
2022-10-26T10:56:23.232Z,6.75
2022-10-26T10:59:35.287Z,6.22
2022-10-26T11:02:53.529Z,7.22
2022-10-26T11:06:05.711Z,8.07
2022-10-26T11:08:58.287Z,8.70
2022-10-26T11:11:49.704Z,7.78
2022-10-26T11:14:40.198Z,5.63
2022-10-26T11:17:32.923Z,6.03
2022-10-26T11:20:24.299Z,7.10
2022-10-26T11:23:21.099Z,5.95
2022-10-26T11:26:15.046Z,5.32
2022-10-26T11:29:08.283Z,4.70
2022-10-26T11:32:03.087Z,4.30
2022-10-26T11:34:56.851Z,3.53
2022-10-26T11:37:51.014Z,7.88
2022-10-26T11:40:46.586Z,4.13
2022-10-26T11:43:39.456Z,4.35
2022-10-26T11:46:33.411Z,4.78
2022-10-26T11:49:28.443Z,6.20
2022-10-26T11:52:22.180Z,3.42
2022-10-26T11:55:12.454Z,6.15
2022-10-26T11:58:02.967Z,3.65
2022-10-26T12:00:57.768Z,3.53
2022-10-26T12:03:49.493Z,3.28
2022-10-26T12:06:37.259Z,4.55
2022-10-26T12:09:32.154Z,2.75
2022-10-26T12:12:28.126Z,4.50
2022-10-26T12:15:30.930Z,3.30
2022-10-26T12:18:54.377Z,4.32
2022-10-26T12:21:44.297Z,3.00
2022-10-26T12:24:35.577Z,2.65
2022-10-26T12:27:34.012Z,2.80
2022-10-26T12:30:31.499Z,3.47
2022-10-26T12:33:30.336Z,2.33
2022-10-26T12:36:48.542Z,4.32
2022-10-26T12:39:37.448Z,3.17
2022-10-26T12:42:31.892Z,2.63
2022-10-26T12:45:21.696Z,2.88
2022-10-26T12:48:38.887Z,2.13
2022-10-26T12:51:45.093Z,2.45
2022-10-26T12:54:44.982Z,2.47
2022-10-26T12:57:39.396Z,1.70
2022-10-26T13:00:29.103Z,1.88
2022-10-26T13:03:29.772Z,3.72
2022-10-26T13:06:38.647Z,3.67
2022-10-26T13:09:30.752Z,1.95
2022-10-26T13:12:18.400Z,3.88
2022-10-26T13:15:19.694Z,1.75
2022-10-26T13:18:11.968Z,2.67
2022-10-26T13:21:09.040Z,1.55
2022-10-26T13:24:05.556Z,3.58
2022-10-26T13:27:26.616Z,2.50
2022-10-26T13:30:37.037Z,2.92
2022-10-26T13:33:34.078Z,2.42
2022-10-26T13:36:32.810Z,2.85
2022-10-26T13:39:24.595Z,1.60
2022-10-26T13:42:17.154Z,2.13
2022-10-26T13:45:10.296Z,2.75
2022-10-26T13:48:06.121Z,6.15
2022-10-26T13:53:53.675Z,2.58
2022-10-26T13:56:49.738Z,2.53
2022-10-26T13:59:42.911Z,1.75
2022-10-26T14:02:31.534Z,2.50
2022-10-26T14:05:20.240Z,2.60
2022-10-26T14:08:07.771Z,1.58
2022-10-26T14:10:59.275Z,2.50
2022-10-26T14:13:48.181Z,1.92
2022-10-26T14:16:36.570Z,2.65
2022-10-26T14:19:27.317Z,1.40
2022-10-26T14:22:23.141Z,3.05
2022-10-26T14:25:26.726Z,2.40
2022-10-26T14:28:27.548Z,2.50
2022-10-26T14:31:22.041Z,1.40
2022-10-26T14:34:13.494Z,3.22
2022-10-26T14:37:04.309Z,1.73
2022-10-26T14:39:52.479Z,2.13
2022-10-26T14:42:44.765Z,3.05
2022-10-26T14:45:48.423Z,2.35
2022-10-26T14:48:37.294Z,1.38
2022-10-26T14:51:28.758Z,1.88
2022-10-26T14:54:25.024Z,1.85
2022-10-26T14:57:32.550Z,3.03
2022-10-26T15:00:22.865Z,1.60
2022-10-26T15:03:17.450Z,2.38
2022-10-26T15:06:47.251Z,3.42
2022-10-26T15:09:40.831Z,1.60
2022-10-26T15:12:32.733Z,1.65
2022-10-26T15:18:22.110Z,2.83
2022-10-26T15:21:24.045Z,2.88
2022-10-26T15:33:22.385Z,3.25
2022-10-26T15:36:17.459Z,2.88
2022-10-26T15:39:05.453Z,4.40
2022-10-26T15:41:53.730Z,16.92
2022-10-26T15:44:41.412Z,17.10
2022-10-26T15:47:33.324Z,14.77
2022-10-26T15:50:24.510Z,21.80
2022-10-26T15:53:20.220Z,21.08
2022-10-26T15:56:15.910Z,19.75
2022-10-26T16:01:52.982Z,27.45
2022-10-26T16:04:40.712Z,28.10
2022-10-26T16:07:29.743Z,24.70
2022-10-26T16:10:22.702Z,19.40
2022-10-26T16:13:14.055Z,17.85
2022-10-26T16:16:03.058Z,16.30
2022-10-26T16:19:06.088Z,13.65
2022-10-26T16:22:03.638Z,15.77
2022-10-26T16:24:52.915Z,11.82
2022-10-26T16:27:40.832Z,9.27
2022-10-26T16:30:31.293Z,10.00
2022-10-26T16:33:19.537Z,7.35
2022-10-26T16:36:08.453Z,5.50
2022-10-26T16:38:56.808Z,4.20
2022-10-26T16:41:45.665Z,4.18
2022-10-26T16:44:33.773Z,4.32
2022-10-26T16:50:14.812Z,4.00
2022-10-26T16:53:02.428Z,3.78
2022-10-26T16:55:50.234Z,5.03
2022-10-26T16:58:39.611Z,5.10
2022-10-26T17:01:27.696Z,4.45
2022-10-26T17:04:16.039Z,3.42
2022-10-26T17:07:03.837Z,3.15
2022-10-26T17:09:51.657Z,4.85
2022-10-26T17:12:39.369Z,3.67
2022-10-26T17:15:29.061Z,5.47
2022-10-26T17:18:17.569Z,5.00
2022-10-26T17:21:05.599Z,5.18
2022-10-26T17:23:53.196Z,5.25
2022-10-26T17:26:40.911Z,6.00
2022-10-26T17:29:29.140Z,8.52
2022-10-26T17:32:18.537Z,6.28
2022-10-26T17:35:07.576Z,5.63
2022-10-26T17:37:55.237Z,5.93
2022-10-26T17:40:43.250Z,5.35
2022-10-26T17:43:34.914Z,6.22
2022-10-26T17:46:24.490Z,7.00
2022-10-26T17:49:13.798Z,5.88
2022-10-26T17:52:01.742Z,8.80
2022-10-26T17:54:49.707Z,6.72
2022-10-26T17:57:37.541Z,6.78
2022-10-26T18:00:25.276Z,7.15
2022-10-26T18:03:13.213Z,7.20
2022-10-26T18:06:02.861Z,7.05
2022-10-26T18:08:50.751Z,6.72
2022-10-26T18:11:38.834Z,7.05
2022-10-26T18:14:26.620Z,7.32
2022-10-26T18:17:14.304Z,9.43
2022-10-26T18:20:01.941Z,8.07
2022-10-26T18:22:51.517Z,8.32
2022-10-26T18:25:39.583Z,7.15
2022-10-26T18:28:27.135Z,8.15
2022-10-26T18:31:17.190Z,7.97
2022-10-26T18:34:06.228Z,8.77
2022-10-26T18:36:55.311Z,9.70
2022-10-26T18:39:44.642Z,8.85
2022-10-26T18:42:32.247Z,11.40
2022-10-26T18:45:19.870Z,10.43
2022-10-26T18:48:07.732Z,12.95
2022-10-26T18:50:55.324Z,10.52
2022-10-26T18:53:44.644Z,11.45
2022-10-26T18:56:33.938Z,10.55
2022-10-26T18:59:21.520Z,8.63
2022-10-26T19:02:15.328Z,10.80
2022-10-26T19:05:03.352Z,16.23
2022-10-26T19:07:51.128Z,10.27
2022-10-26T19:10:38.710Z,9.35
2022-10-26T19:13:28.030Z,8.50
2022-10-26T19:16:33.574Z,7.35
2022-10-26T19:19:26.433Z,9.60
2022-10-26T19:22:14.329Z,11.68
2022-10-26T19:25:03.879Z,7.10
2022-10-26T19:27:55.526Z,7.80
2022-10-26T19:30:44.347Z,7.47
2022-10-26T19:33:32.238Z,8.03
2022-10-26T19:36:19.748Z,8.03
2022-10-26T19:39:07.896Z,6.43
2022-10-26T19:41:55.407Z,6.97
2022-10-26T19:44:43.284Z,8.20
2022-10-26T19:47:32.534Z,6.07
2022-10-26T19:50:20.173Z,6.10
2022-10-26T19:53:07.836Z,6.87
2022-10-26T19:55:58.257Z,9.10
2022-10-26T19:58:46.519Z,9.33
2022-10-26T20:01:35.019Z,6.57
2022-10-26T20:04:24.100Z,6.87
2022-10-26T20:07:12.066Z,7.87
2022-10-26T20:10:00.326Z,9.27
2022-10-26T20:12:48.341Z,15.27
2022-10-26T20:15:36.500Z,13.50
2022-10-26T23:15:18.546Z,22.53
2022-10-26T23:18:06.235Z,28.17
2022-10-26T23:20:53.870Z,23.37
2022-10-26T23:23:42.395Z,24.93
2022-10-26T23:26:32.488Z,21.13
2022-10-26T23:29:20.205Z,24.13
2022-10-26T23:32:07.647Z,21.23
2022-10-26T23:34:55.504Z,22.43
2022-10-26T23:37:43.439Z,22.83
2022-10-26T23:40:31.138Z,23.80
2022-10-26T23:43:20.558Z,21.63
2022-10-26T23:46:08.707Z,22.63
2022-10-26T23:48:56.262Z,23.60
2022-10-26T23:51:43.976Z,24.90
2022-10-26T23:54:31.848Z,21.27
2022-10-26T23:57:19.617Z,28.80
